Time;durP1;ratioP1;P1;durP2;ratioP2;P2;SDS_P1;SDS_P2;PMS_P1;PMS_P2;Temp;Humidity;BMP_temperature;BMP_pressure;BME280_temperature;BME280_humidity;BME280_pressure;Samples;Min_cycle;Max_cycle;Signal;HPM_P1;HPM_P2
2021/04/23 00:01:47;;;;;;;12.35;5.50;;;4.20;79.70;;;;;;5013619;28;20032;-75
2021/04/23 00:04:13;;;;;;;16.25;5.70;;;4.20;79.80;;;;;;5006964;28;20024;-75
2021/04/23 00:06:41;;;;;;;17.30;5.05;;;4.20;80.00;;;;;;5031953;28;20020;-75
2021/04/23 00:09:15;;;;;;;14.00;4.80;;;4.10;79.70;;;;;;5027395;28;21302;-75
2021/04/23 00:11:43;;;;;;;13.50;5.43;;;4.10;79.30;;;;;;5029549;28;20029;-75
2021/04/23 00:14:09;;;;;;;16.83;4.95;;;4.00;79.50;;;;;;5015181;28;20098;-75
2021/04/23 00:16:35;;;;;;;16.73;5.90;;;3.90;80.30;;;;;;5020575;28;20431;-75
2021/04/23 00:19:01;;;;;;;19.88;5.90;;;3.80;80.30;;;;;;5013687;28;20032;-76
2021/04/23 00:21:27;;;;;;;10.77;5.10;;;3.80;80.90;;;;;;5065202;28;20523;-75
2021/04/23 00:23:52;;;;;;;13.95;5.35;;;3.80;81.70;;;;;;5030869;28;20167;-76
2021/04/23 00:26:18;;;;;;;16.08;5.50;;;3.70;81.70;;;;;;5045387;28;20064;-75
2021/04/23 00:28:44;;;;;;;11.93;6.05;;;3.60;82.40;;;;;;5044375;28;20097;-76
2021/04/23 00:31:10;;;;;;;15.15;6.50;;;3.60;82.60;;;;;;5026424;28;20136;-75
2021/04/23 00:33:36;;;;;;;16.05;6.15;;;3.60;81.70;;;;;;5014116;28;20563;-75
2021/04/23 00:36:02;;;;;;;14.60;5.38;;;3.60;82.10;;;;;;5013627;28;20056;-75
2021/04/23 00:38:28;;;;;;;12.05;5.90;;;3.50;82.50;;;;;;5024220;28;20055;-75
2021/04/23 00:41:17;;;;;;;14.90;6.70;;;3.30;83.40;;;;;;5012800;28;20043;-75
2021/04/23 00:43:56;;;;;;;16.70;5.60;;;3.30;83.60;;;;;;5043205;28;20059;-75
2021/04/23 00:46:21;;;;;;;18.35;5.60;;;3.30;83.70;;;;;;5032152;28;20033;-75
2021/04/23 00:48:47;;;;;;;12.65;6.20;;;3.30;82.70;;;;;;5022951;28;20109;-75
2021/04/23 00:51:15;;;;;;;17.85;5.53;;;3.40;82.60;;;;;;5010495;28;20665;-75
2021/04/23 00:53:42;;;;;;;10.68;5.65;;;3.30;82.80;;;;;;5024210;28;20399;-75
2021/04/23 00:56:10;;;;;;;12.85;5.25;;;3.30;82.20;;;;;;5012579;28;20599;-75
2021/04/23 00:58:36;;;;;;;14.95;6.22;;;3.20;82.90;;;;;;5023488;28;20948;-75
2021/04/23 01:01:06;;;;;;;11.30;5.13;;;3.20;83.00;;;;;;5031005;28;20032;-74
2021/04/23 01:03:32;;;;;;;9.27;5.22;;;3.00;83.70;;;;;;5029784;28;20021;-75
2021/04/23 01:05:58;;;;;;;15.38;5.72;;;3.00;84.00;;;;;;5017965;28;20116;-75
2021/04/23 01:08:25;;;;;;;16.42;6.35;;;3.00;84.90;;;;;;5018731;28;20380;-77
2021/04/23 01:10:55;;;;;;;16.15;6.00;;;3.00;84.10;;;;;;5033980;28;20032;-77
2021/04/23 01:13:22;;;;;;;14.43;5.85;;;2.90;84.60;;;;;;5035050;28;20025;-75
2021/04/23 01:15:47;;;;;;;12.65;5.68;;;2.90;85.30;;;;;;5034682;28;20082;-74
2021/04/23 01:18:13;;;;;;;12.63;5.75;;;2.90;85.20;;;;;;5016356;28;20024;-75
2021/04/23 01:20:38;;;;;;;12.75;5.68;;;2.90;84.20;;;;;;5018220;28;20108;-74
2021/04/23 01:23:04;;;;;;;20.52;7.05;;;3.00;82.70;;;;;;5034258;28;20123;-75
2021/04/23 01:25:30;;;;;;;19.67;6.15;;;3.00;82.20;;;;;;5026185;28;20082;-75
2021/04/23 01:27:56;;;;;;;24.17;7.07;;;3.10;81.20;;;;;;5045889;28;20021;-75
2021/04/23 01:30:22;;;;;;;15.73;6.40;;;2.90;82.00;;;;;;5030485;28;20035;-75
2021/04/23 01:32:48;;;;;;;18.00;6.15;;;2.80;83.20;;;;;;5017785;28;20071;-75
2021/04/23 01:35:19;;;;;;;16.58;6.30;;;2.70;83.20;;;;;;5029222;28;20063;-74
2021/04/23 01:37:45;;;;;;;14.48;6.72;;;2.70;83.10;;;;;;5031758;28;20036;-75
2021/04/23 01:40:11;;;;;;;17.33;7.40;;;2.70;83.40;;;;;;5024920;28;20120;-75
2021/04/23 01:42:37;;;;;;;16.20;6.38;;;2.70;83.30;;;;;;5027008;28;20041;-75
2021/04/23 01:45:04;;;;;;;17.13;6.95;;;2.70;83.60;;;;;;5015577;28;20063;-74
2021/04/23 01:47:30;;;;;;;15.63;6.40;;;2.80;82.90;;;;;;5009983;28;20116;-75
2021/04/23 01:49:56;;;;;;;18.60;7.68;;;2.70;82.70;;;;;;5027450;28;20104;-75
2021/04/23 01:52:22;;;;;;;15.55;6.10;;;2.60;83.00;;;;;;5017113;28;20098;-75
2021/04/23 01:54:48;;;;;;;12.07;5.88;;;2.60;83.40;;;;;;5017470;28;20039;-75
2021/04/23 01:57:13;;;;;;;14.95;6.10;;;2.50;84.00;;;;;;5010606;28;20025;-74
2021/04/23 01:59:39;;;;;;;13.05;6.57;;;2.40;84.40;;;;;;5028924;28;20028;-75
2021/04/23 02:02:05;;;;;;;20.65;7.70;;;2.40;84.80;;;;;;5048454;28;20047;-74
2021/04/23 02:04:31;;;;;;;13.85;6.35;;;2.30;85.10;;;;;;5027775;28;20036;-75
2021/04/23 02:06:56;;;;;;;15.05;5.97;;;2.40;83.30;;;;;;5005884;28;20107;-75
2021/04/23 02:09:22;;;;;;;14.15;6.45;;;2.50;82.50;;;;;;5026964;28;20115;-75
2021/04/23 02:11:48;;;;;;;13.35;5.95;;;2.60;81.30;;;;;;5016482;28;20047;-75
2021/04/23 02:14:14;;;;;;;10.77;6.00;;;2.50;80.70;;;;;;5066087;28;20028;-75
2021/04/23 02:16:40;;;;;;;14.48;5.68;;;2.60;79.90;;;;;;5043354;28;20032;-75
2021/04/23 02:19:10;;;;;;;9.65;4.32;;;2.60;80.00;;;;;;5032112;28;20052;-75
2021/04/23 02:21:36;;;;;;;17.45;6.75;;;2.70;80.10;;;;;;5016728;28;20094;-75
2021/04/23 02:24:02;;;;;;;12.10;5.85;;;2.60;79.80;;;;;;5026185;28;20041;-75
2021/04/23 02:26:28;;;;;;;16.65;6.15;;;2.40;80.50;;;;;;5017432;28;20455;-75
2021/04/23 02:28:53;;;;;;;15.73;6.18;;;2.30;80.80;;;;;;5050974;28;20027;-75
2021/04/23 02:31:22;;;;;;;13.55;5.40;;;2.20;81.00;;;;;;5015926;28;20102;-76
2021/04/23 02:33:48;;;;;;;11.82;5.63;;;2.20;80.70;;;;;;5037763;28;20055;-75
2021/04/23 02:36:15;;;;;;;12.23;5.43;;;2.30;79.80;;;;;;5033737;28;20028;-75
2021/04/23 02:38:42;;;;;;;14.25;5.70;;;2.40;79.80;;;;;;5040286;28;20041;-75
2021/04/23 02:41:07;;;;;;;13.48;5.95;;;2.40;79.30;;;;;;5016624;28;20055;-75
2021/04/23 02:43:35;;;;;;;9.55;4.43;;;2.30;79.60;;;;;;5041658;28;20449;-75
2021/04/23 02:46:01;;;;;;;13.93;5.85;;;2.30;79.50;;;;;;5025995;28;20075;-75
2021/04/23 02:48:28;;;;;;;15.35;6.90;;;2.30;79.90;;;;;;5042637;28;20056;-75
2021/04/23 02:50:59;;;;;;;16.30;6.75;;;2.20;80.80;;;;;;5039690;28;20116;-75
2021/04/23 02:53:24;;;;;;;22.23;6.68;;;2.00;80.70;;;;;;5029115;28;20399;-76
2021/04/23 02:55:50;;;;;;;13.18;6.55;;;2.00;80.20;;;;;;5030955;28;20032;-76
2021/04/23 02:58:17;;;;;;;14.95;6.85;;;2.10;80.10;;;;;;5022790;28;20139;-76
2021/04/23 03:00:45;;;;;;;11.90;5.70;;;1.90;81.40;;;;;;5023758;28;20105;-76
2021/04/23 03:03:11;;;;;;;13.02;7.13;;;1.80;81.30;;;;;;5042593;28;20044;-76
2021/04/23 03:05:37;;;;;;;16.67;6.70;;;1.70;81.60;;;;;;5016258;28;20037;-76
2021/04/23 03:08:03;;;;;;;16.65;7.22;;;1.70;82.40;;;;;;5015696;28;20492;-76
2021/04/23 03:10:32;;;;;;;16.02;6.82;;;1.60;82.40;;;;;;5026171;28;20059;-76
2021/04/23 03:13:06;;;;;;;19.45;6.88;;;1.50;82.80;;;;;;5028034;28;20040;-77
2021/04/23 03:15:31;;;;;;;11.80;5.70;;;1.60;82.00;;;;;;5043673;28;20032;-76
2021/04/23 03:17:57;;;;;;;12.85;6.45;;;1.70;81.80;;;;;;5015168;28;20438;-77
2021/04/23 03:20:23;;;;;;;10.50;6.10;;;1.70;81.40;;;;;;5016280;28;20035;-76
2021/04/23 03:22:49;;;;;;;15.32;6.68;;;1.60;81.60;;;;;;5015877;28;20034;-76
2021/04/23 03:25:14;;;;;;;15.15;7.25;;;1.40;82.50;;;;;;5031485;28;20032;-76
2021/04/23 03:27:40;;;;;;;20.08;7.35;;;1.30;83.60;;;;;;5032220;28;20036;-77
2021/04/23 03:30:08;;;;;;;11.48;6.25;;;1.20;83.80;;;;;;5025180;28;20032;-76
2021/04/23 03:32:34;;;;;;;10.18;6.05;;;1.40;82.50;;;;;;5025385;28;20020;-76
2021/04/23 03:34:59;;;;;;;15.50;7.30;;;1.40;81.80;;;;;;5026194;28;20353;-76
2021/04/23 03:37:25;;;;;;;14.07;7.22;;;1.40;82.60;;;;;;5027444;28;20078;-77
2021/04/23 03:39:51;;;;;;;14.13;6.63;;;1.40;82.70;;;;;;5028221;28;20605;-76
2021/04/23 03:42:16;;;;;;;14.68;7.18;;;1.30;83.00;;;;;;5026941;28;20037;-76
2021/04/23 03:44:42;;;;;;;18.83;7.13;;;1.20;84.10;;;;;;5030768;28;20029;-76
2021/04/23 03:47:07;;;;;;;12.75;5.35;;;1.10;83.80;;;;;;5015023;28;20037;-76
2021/04/23 03:49:33;;;;;;;14.48;5.90;;;1.30;82.90;;;;;;5024175;28;20024;-76
2021/04/23 03:51:58;;;;;;;13.25;6.53;;;1.30;82.40;;;;;;5015390;28;20115;-76
2021/04/23 03:54:24;;;;;;;14.15;5.75;;;1.40;82.40;;;;;;5036628;28;20472;-76
2021/04/23 03:56:49;;;;;;;14.55;5.88;;;1.30;81.90;;;;;;5046504;28;20028;-76
2021/04/23 03:59:15;;;;;;;13.32;6.15;;;1.30;81.90;;;;;;5044870;28;20452;-76
2021/04/23 04:01:41;;;;;;;14.15;6.57;;;1.20;82.30;;;;;;5038122;28;20033;-76
2021/04/23 04:04:07;;;;;;;10.30;5.93;;;1.30;83.60;;;;;;5031883;28;20066;-76
2021/04/23 04:06:32;;;;;;;13.25;6.78;;;1.30;82.40;;;;;;5025633;28;20044;-76
2021/04/23 04:08:58;;;;;;;16.98;7.20;;;1.40;82.60;;;;;;5005323;28;20044;-77
2021/04/23 04:11:23;;;;;;;15.88;6.90;;;1.20;82.10;;;;;;5017636;28;20063;-76
2021/04/23 04:13:49;;;;;;;14.45;6.53;;;1.00;83.10;;;;;;5032552;28;20096;-76
2021/04/23 04:16:14;;;;;;;14.88;7.05;;;1.10;83.40;;;;;;5025504;28;20113;-76
2021/04/23 04:18:40;;;;;;;16.02;7.45;;;0.90;84.00;;;;;;5015221;28;20024;-76
2021/04/23 04:21:05;;;;;;;12.00;5.78;;;1.00;83.90;;;;;;5023825;28;20056;-76
2021/04/23 04:23:31;;;;;;;19.27;6.93;;;1.00;83.50;;;;;;5041157;28;20079;-77
2021/04/23 04:25:58;;;;;;;16.27;5.47;;;1.00;83.30;;;;;;5030697;28;20450;-76
2021/04/23 04:28:24;;;;;;;12.70;5.68;;;1.00;82.70;;;;;;5021375;28;20028;-76
2021/04/23 04:30:50;;;;;;;13.20;6.50;;;1.00;82.80;;;;;;5023196;28;20029;-76
2021/04/23 04:33:15;;;;;;;11.32;6.00;;;1.00;82.50;;;;;;5029390;28;20504;-77
2021/04/23 04:35:41;;;;;;;16.65;7.53;;;1.00;84.30;;;;;;5023466;28;20072;-76
2021/04/23 04:38:08;;;;;;;9.77;5.63;;;1.00;82.90;;;;;;5018386;28;20115;-76
2021/04/23 04:40:34;;;;;;;11.95;5.93;;;1.00;83.70;;;;;;5019340;28;20476;-76
2021/04/23 04:42:59;;;;;;;18.60;6.53;;;1.00;83.70;;;;;;5028350;28;20032;-77
2021/04/23 04:45:26;;;;;;;14.73;6.30;;;1.10;84.10;;;;;;5045215;28;20094;-76
2021/04/23 04:47:51;;;;;;;15.73;7.07;;;1.10;83.80;;;;;;5013476;28;20029;-77
2021/04/23 04:50:19;;;;;;;15.35;7.65;;;1.00;83.70;;;;;;5015847;28;20040;-76
2021/04/23 04:52:45;;;;;;;17.75;7.43;;;1.00;84.00;;;;;;5034535;28;20043;-77
2021/04/23 04:55:12;;;;;;;20.23;9.32;;;1.00;83.90;;;;;;5018007;28;20045;-77
2021/04/23 04:57:37;;;;;;;23.30;9.30;;;0.90;84.20;;;;;;5016207;28;20404;-77
2021/04/23 05:00:06;;;;;;;16.52;7.65;;;1.00;84.40;;;;;;5017353;28;20029;-77
2021/04/23 05:02:31;;;;;;;21.98;8.60;;;1.00;85.10;;;;;;5030092;28;20085;-77
2021/04/23 05:04:57;;;;;;;20.25;9.23;;;1.10;84.50;;;;;;5016582;28;20306;-77
2021/04/23 05:07:22;;;;;;;24.02;9.18;;;1.20;84.80;;;;;;5028451;28;20028;-77
2021/04/23 05:09:48;;;;;;;16.85;9.25;;;1.20;84.70;;;;;;5028927;28;20029;-78
2021/04/23 05:12:13;;;;;;;22.10;8.05;;;1.30;83.70;;;;;;5012642;28;20399;-77
2021/04/23 05:14:39;;;;;;;19.95;8.98;;;1.40;84.10;;;;;;5026017;28;20041;-77
2021/04/23 05:17:04;;;;;;;17.05;7.80;;;1.60;84.60;;;;;;5065399;28;20029;-77
2021/04/23 05:19:30;;;;;;;20.10;9.02;;;1.70;83.10;;;;;;5030215;28;20032;-76
2021/04/23 05:21:55;;;;;;;21.63;9.75;;;1.90;83.80;;;;;;5030904;28;20025;-77
2021/04/23 05:24:21;;;;;;;17.42;8.07;;;2.00;85.00;;;;;;5032735;28;20043;-77
2021/04/23 05:26:46;;;;;;;28.77;10.98;;;1.90;83.80;;;;;;5013278;28;20044;-78
2021/04/23 05:29:12;;;;;;;26.20;10.57;;;2.10;85.30;;;;;;5031546;28;20032;-77
2021/04/23 05:31:37;;;;;;;15.75;8.00;;;2.10;84.00;;;;;;5049608;28;20171;-77
2021/04/23 05:34:03;;;;;;;26.63;11.75;;;2.20;85.60;;;;;;5028092;28;20032;-77
2021/04/23 05:36:29;;;;;;;12.82;6.43;;;2.30;87.10;;;;;;5016428;28;20044;-77
2021/04/23 05:38:54;;;;;;;26.92;10.90;;;2.40;83.70;;;;;;5027967;28;20025;-77
2021/04/23 05:41:20;;;;;;;21.63;9.73;;;2.60;85.20;;;;;;5028001;28;20433;-78
2021/04/23 05:43:47;;;;;;;18.63;9.60;;;2.70;84.10;;;;;;5032237;28;20488;-77
2021/04/23 05:46:13;;;;;;;21.23;9.55;;;2.80;86.30;;;;;;5005987;28;20031;-77
2021/04/23 05:48:39;;;;;;;14.25;6.82;;;3.00;83.20;;;;;;5028045;28;20412;-77
2021/04/23 05:51:05;;;;;;;21.40;9.82;;;3.10;84.60;;;;;;5013421;28;20032;-77
2021/04/23 05:53:30;;;;;;;26.08;10.70;;;3.20;85.60;;;;;;5024575;28;20365;-77
2021/04/23 05:55:56;;;;;;;22.88;10.35;;;3.40;85.80;;;;;;5022804;28;20488;-77
2021/04/23 05:58:22;;;;;;;18.13;8.98;;;3.50;88.10;;;;;;5010262;28;20403;-77
2021/04/23 06:00:47;;;;;;;18.00;8.57;;;3.60;85.60;;;;;;5026369;28;20032;-77
2021/04/23 06:03:14;;;;;;;13.02;5.68;;;3.80;86.40;;;;;;5032190;28;20411;-77
2021/04/23 06:05:40;;;;;;;28.95;10.82;;;4.00;79.70;;;;;;5024980;28;20128;-79
2021/04/23 06:08:09;;;;;;;17.23;8.10;;;4.20;84.20;;;;;;5023341;28;20060;-78
2021/04/23 06:10:34;;;;;;;27.58;9.52;;;4.40;83.10;;;;;;5029503;28;20041;-77
2021/04/23 06:13:00;;;;;;;17.05;7.65;;;4.50;84.00;;;;;;5021172;28;20102;-77
2021/04/23 06:15:26;;;;;;;18.88;6.40;;;4.60;80.80;;;;;;5021703;28;20069;-78
2021/04/23 06:17:54;;;;;;;13.43;5.55;;;4.70;82.30;;;;;;5020301;28;20033;-77
2021/04/23 06:20:20;;;;;;;13.00;6.00;;;4.80;78.90;;;;;;5030406;28;20411;-78
2021/04/23 06:22:46;;;;;;;14.30;5.35;;;5.00;79.80;;;;;;5015577;28;20403;-78
2021/04/23 06:25:13;;;;;;;18.75;7.45;;;5.10;79.70;;;;;;5032180;28;20033;-78
2021/04/23 06:27:39;;;;;;;25.92;10.13;;;5.30;79.30;;;;;;5019108;28;20054;-78
2021/04/23 06:30:06;;;;;;;27.08;9.63;;;5.40;81.00;;;;;;5024176;28;20036;-78
2021/04/23 06:32:32;;;;;;;22.77;9.77;;;5.40;81.90;;;;;;5027440;28;20021;-77
2021/04/23 06:34:57;;;;;;;19.48;9.27;;;5.60;82.20;;;;;;5011114;28;20089;-77
2021/04/23 06:37:23;;;;;;;29.75;11.23;;;5.80;83.40;;;;;;5010442;28;20102;-78
2021/04/23 06:39:48;;;;;;;22.02;8.40;;;5.70;86.40;;;;;;5025895;28;20500;-77
2021/04/23 06:42:14;;;;;;;19.27;7.72;;;5.90;85.00;;;;;;5027704;28;20028;-77
2021/04/23 06:44:39;;;;;;;19.85;9.32;;;6.10;82.90;;;;;;5013816;28;20074;-77
2021/04/23 06:47:05;;;;;;;19.02;8.32;;;6.20;85.10;;;;;;5013513;28;20510;-77
2021/04/23 06:49:30;;;;;;;24.23;9.23;;;6.40;84.80;;;;;;5025638;28;20490;-77
2021/04/23 06:51:57;;;;;;;20.33;8.35;;;6.60;87.90;;;;;;5024814;28;20028;-77
2021/04/23 06:54:23;;;;;;;18.88;7.63;;;6.60;88.30;;;;;;5047940;28;20484;-77
2021/04/23 06:56:49;;;;;;;18.92;6.93;;;6.80;87.90;;;;;;5007970;28;20056;-77
2021/04/23 06:59:14;;;;;;;18.23;7.28;;;7.00;87.20;;;;;;5040708;28;20480;-77
2021/04/23 07:01:40;;;;;;;28.02;8.25;;;7.10;87.90;;;;;;5012238;28;20123;-77
2021/04/23 07:04:05;;;;;;;18.08;6.93;;;7.30;88.40;;;;;;5027217;28;20027;-77
2021/04/23 07:06:31;;;;;;;13.80;6.50;;;7.40;86.00;;;;;;5023156;28;20031;-77
2021/04/23 07:08:57;;;;;;;17.75;5.60;;;7.50;87.70;;;;;;5040320;28;20025;-77
2021/04/23 07:11:23;;;;;;;20.20;5.80;;;7.70;87.40;;;;;;5014437;28;20268;-77
2021/04/23 07:13:48;;;;;;;15.80;5.28;;;7.90;87.60;;;;;;5014273;28;20039;-77
2021/04/23 07:22:19;;;;;;;14.80;5.65;;;8.50;86.90;;;;;;5008313;28;20031;-78
2021/04/23 07:24:45;;;;;;;24.77;5.75;;;8.60;86.50;;;;;;5023142;28;20590;-77
2021/04/23 07:27:10;;;;;;;12.15;4.40;;;8.70;86.00;;;;;;5016616;28;20039;-77
2021/04/23 07:29:36;;;;;;;16.63;4.45;;;8.70;84.40;;;;;;5047228;28;20029;-77
2021/04/23 07:32:02;;;;;;;16.42;4.72;;;8.70;84.00;;;;;;5028982;28;20036;-77
2021/04/23 07:34:27;;;;;;;11.20;4.68;;;8.80;83.70;;;;;;5012833;28;20029;-77
2021/04/23 07:36:53;;;;;;;9.45;4.25;;;8.90;83.40;;;;;;5006555;28;20028;-77
2021/04/23 07:39:21;;;;;;;6.53;3.85;;;9.00;81.00;;;;;;5029627;28;20044;-77
2021/04/23 07:41:48;;;;;;;11.98;4.55;;;9.10;82.50;;;;;;5022864;28;20504;-77
2021/04/23 07:44:14;;;;;;;9.52;4.57;;;9.20;80.60;;;;;;5024141;28;20032;-77
2021/04/23 07:46:39;;;;;;;13.05;5.25;;;9.30;80.00;;;;;;5025605;28;20024;-77
2021/04/23 07:49:05;;;;;;;6.68;4.63;;;9.50;83.10;;;;;;5021665;28;20025;-77
2021/04/23 07:51:31;;;;;;;12.90;5.32;;;9.70;81.20;;;;;;5047451;28;20024;-77
2021/04/23 07:53:56;;;;;;;15.80;5.57;;;9.90;82.30;;;;;;5034788;28;20040;-77
2021/04/23 07:56:22;;;;;;;10.90;5.50;;;10.30;77.50;;;;;;5042128;28;20148;-77
2021/04/23 07:58:47;;;;;;;10.43;4.90;;;10.60;79.60;;;;;;5022057;28;20454;-78
2021/04/23 08:01:14;;;;;;;14.93;5.50;;;10.80;79.50;;;;;;5023516;28;20685;-77
2021/04/23 08:03:39;;;;;;;18.17;5.57;;;10.80;80.30;;;;;;5040545;28;20131;-77
2021/04/23 08:06:05;;;;;;;6.72;4.00;;;11.00;80.30;;;;;;5023352;28;20229;-78
2021/04/23 08:08:30;;;;;;;10.30;3.60;;;11.10;80.00;;;;;;5041738;28;20387;-77
2021/04/23 08:10:56;;;;;;;7.20;3.05;;;11.40;77.90;;;;;;5020119;28;20073;-78
2021/04/23 08:13:21;;;;;;;9.90;3.85;;;11.60;78.30;;;;;;5029742;28;20016;-78
2021/04/23 08:15:47;;;;;;;12.57;3.28;;;11.90;74.90;;;;;;5023557;28;20043;-78
2021/04/23 08:18:13;;;;;;;9.65;3.45;;;11.90;75.80;;;;;;5027199;28;20035;-78
2021/04/23 08:20:39;;;;;;;11.07;3.85;;;11.80;74.80;;;;;;5040570;28;20032;-79
2021/04/23 08:23:04;;;;;;;7.72;3.38;;;11.70;75.70;;;;;;5042556;28;20402;-77
2021/04/23 08:25:30;;;;;;;16.52;3.70;;;11.70;73.80;;;;;;5032641;28;20036;-78
2021/04/23 08:27:55;;;;;;;9.52;3.55;;;11.60;74.70;;;;;;5032264;28;20517;-78
2021/04/23 08:30:23;;;;;;;11.77;3.45;;;11.70;73.20;;;;;;5024429;28;20569;-78
2021/04/23 08:32:48;;;;;;;12.15;4.63;;;11.80;73.20;;;;;;5012413;28;20037;-78
2021/04/23 08:35:14;;;;;;;7.03;3.13;;;11.90;71.70;;;;;;5003361;28;20033;-78
2021/04/23 08:37:40;;;;;;;10.15;3.33;;;12.10;70.40;;;;;;5038580;28;20033;-78
2021/04/23 08:40:07;;;;;;;6.88;3.65;;;12.30;71.30;;;;;;5013188;28;20506;-78
2021/04/23 08:42:33;;;;;;;10.68;4.28;;;12.40;70.00;;;;;;5025945;28;20028;-78
2021/04/23 08:44:59;;;;;;;11.75;4.05;;;12.60;68.60;;;;;;5011613;28;20230;-78
2021/04/23 08:47:24;;;;;;;3.88;3.00;;;12.60;68.00;;;;;;5023496;28;20032;-78
2021/04/23 08:49:50;;;;;;;13.55;3.88;;;12.60;69.10;;;;;;5008970;28;20021;-79
2021/04/23 08:52:16;;;;;;;7.90;3.63;;;12.80;70.00;;;;;;5010890;28;20029;-78
2021/04/23 08:54:41;;;;;;;5.85;3.35;;;12.80;70.00;;;;;;5012803;28;20033;-78
2021/04/23 08:57:07;;;;;;;11.38;3.50;;;12.90;69.40;;;;;;5026094;28;20048;-78
2021/04/23 08:59:33;;;;;;;9.98;4.20;;;13.10;70.40;;;;;;5026794;28;20495;-75
2021/04/23 09:01:59;;;;;;;6.57;4.10;;;13.20;68.70;;;;;;5012899;28;20102;-77
2021/04/23 09:04:25;;;;;;;8.63;4.15;;;13.40;65.00;;;;;;5030158;28;20477;-76
2021/04/23 09:07:04;;;;;;;11.40;4.55;;;13.40;64.30;;;;;;5034453;28;20488;-77
2021/04/23 09:09:48;;;;;;;9.15;3.47;;;13.40;65.70;;;;;;5046826;28;20025;-76
2021/04/23 09:12:21;;;;;;;11.68;4.28;;;13.40;66.70;;;;;;5029756;28;20020;-76
2021/04/23 09:14:47;;;;;;;11.93;4.35;;;13.70;66.30;;;;;;5038517;28;20037;-76
2021/04/23 09:17:16;;;;;;;10.00;4.15;;;13.70;63.40;;;;;;5026850;28;20032;-76
2021/04/23 09:19:42;;;;;;;11.65;4.97;;;13.70;63.30;;;;;;5014968;28;20036;-76
2021/04/23 09:22:18;;;;;;;10.35;4.18;;;13.70;65.20;;;;;;5044206;28;20044;-76
2021/04/23 09:24:44;;;;;;;;;;;13.80;65.20;;;;;;5047697;28;20063;-77
2021/04/23 09:27:17;;;;;;;13.82;4.50;;;13.90;64.10;;;;;;5050033;28;19916;-77
2021/04/23 09:29:47;;;;;;;8.38;3.97;;;13.90;63.60;;;;;;5031058;28;20043;-76
2021/04/23 09:32:16;;;;;;;10.40;3.00;;;13.90;62.40;;;;;;5026822;28;20128;-76
2021/04/23 09:34:47;;;;;;;8.60;3.58;;;14.40;63.70;;;;;;5040652;28;20071;-77
2021/04/23 09:37:14;;;;;;;13.45;4.85;;;16.40;56.00;;;;;;5049591;28;20429;-76
2021/04/23 09:39:40;;;;;;;11.52;4.15;;;15.20;60.10;;;;;;5042874;28;20033;-77
2021/04/23 09:42:10;;;;;;;8.98;3.75;;;14.70;59.30;;;;;;5011353;28;20082;-76
2021/04/23 09:44:40;;;;;;;8.15;4.85;;;14.90;61.10;;;;;;5032369;28;20646;-76
2021/04/23 09:47:11;;;;;;;8.63;3.28;;;14.70;60.90;;;;;;5029282;28;20122;-77
2021/04/23 09:49:37;;;;;;;10.23;4.80;;;14.80;63.20;;;;;;5068570;28;20028;-77
2021/04/23 09:52:04;;;;;;;9.80;4.13;;;15.00;59.90;;;;;;5030758;28;20039;-77
2021/04/23 09:54:30;;;;;;;6.25;3.72;;;14.80;58.30;;;;;;5017746;28;20583;-76
2021/04/23 09:56:55;;;;;;;11.30;4.20;;;14.80;58.30;;;;;;5033084;28;20104;-77
2021/04/23 09:59:26;;;;;;;7.80;3.92;;;14.90;58.70;;;;;;5024479;28;20110;-77
2021/04/23 10:02:10;;;;;;;11.23;4.65;;;15.00;57.20;;;;;;5031024;28;20577;-76
2021/04/23 10:04:36;;;;;;;9.57;4.72;;;15.00;56.40;;;;;;5022704;28;20033;-77
2021/04/23 10:07:08;;;;;;;9.10;3.60;;;14.90;56.50;;;;;;5015341;28;20041;-77
2021/04/23 10:09:41;;;;;;;6.07;3.67;;;15.50;59.60;;;;;;5039377;28;20029;-77
2021/04/23 10:12:07;;;;;;;8.00;5.07;;;15.70;58.60;;;;;;5013908;28;20033;-77
2021/04/23 10:14:33;;;;;;;10.23;4.75;;;15.50;55.60;;;;;;5050227;28;20488;-77
2021/04/23 10:16:59;;;;;;;9.63;4.40;;;15.30;57.20;;;;;;5029020;28;20024;-77
2021/04/23 10:19:26;;;;;;;9.40;4.72;;;15.40;57.10;;;;;;5049510;28;20064;-77
2021/04/23 10:21:52;;;;;;;10.93;5.07;;;15.40;57.00;;;;;;5023790;28;20086;-77
2021/04/23 10:24:22;;;;;;;8.45;3.85;;;15.50;57.70;;;;;;5015352;28;20028;-77
2021/04/23 10:26:49;;;;;;;7.50;4.90;;;15.80;58.80;;;;;;5036172;28;20560;-77
2021/04/23 10:29:15;;;;;;;10.82;4.80;;;15.90;58.20;;;;;;5047512;28;20503;-77
2021/04/23 10:31:41;;;;;;;10.70;4.47;;;15.80;55.00;;;;;;5029311;28;20044;-77
2021/04/23 10:34:09;;;;;;;9.50;4.75;;;15.90;56.80;;;;;;5030154;28;20426;-77
2021/04/23 10:36:36;;;;;;;11.35;4.22;;;16.00;57.60;;;;;;5028711;28;20040;-77
2021/04/23 10:39:02;;;;;;;10.32;5.47;;;16.10;58.70;;;;;;5013635;28;20068;-77
2021/04/23 10:41:35;;;;;;;8.95;3.70;;;16.50;55.00;;;;;;5028363;28;20475;-77
2021/04/23 10:44:00;;;;;;;14.50;5.93;;;16.40;56.60;;;;;;5015919;28;20029;-78
2021/04/23 10:46:28;;;;;;;11.80;6.03;;;16.30;52.60;;;;;;5045058;28;20063;-78
2021/04/23 10:49:05;;;;;;;11.32;5.00;;;16.30;53.10;;;;;;5025316;28;20024;-77
2021/04/23 10:51:30;;;;;;;8.55;3.67;;;16.20;53.90;;;;;;5046682;28;20492;-77
2021/04/23 10:54:13;;;;;;;5.38;3.35;;;16.20;55.70;;;;;;5015231;28;20036;-78
2021/04/23 10:56:39;;;;;;;8.55;5.50;;;16.80;57.00;;;;;;5050656;28;20024;-77
2021/04/23 10:59:26;;;;;;;10.23;5.72;;;16.60;54.50;;;;;;5028676;28;20023;-77
2021/04/23 11:01:52;;;;;;;9.48;5.90;;;16.50;52.60;;;;;;5033885;28;20086;-77
2021/04/23 11:04:18;;;;;;;10.43;5.53;;;16.40;51.00;;;;;;5032625;28;20032;-78
2021/04/23 11:07:00;;;;;;;16.05;4.80;;;16.40;50.70;;;;;;5017198;28;20035;-77
2021/04/23 11:09:26;;;;;;;11.05;6.20;;;16.40;52.10;;;;;;5032252;28;20029;-77
2021/04/23 11:12:13;;;;;;;15.68;6.43;;;16.50;52.30;;;;;;5025368;28;20032;-77
2021/04/23 11:14:40;;;;;;;14.80;6.03;;;16.80;50.70;;;;;;5028044;28;20033;-77
2021/04/23 11:17:26;;;;;;;10.77;4.57;;;16.60;51.00;;;;;;5022649;28;20121;-78
2021/04/23 11:19:52;;;;;;;5.57;3.87;;;16.60;52.80;;;;;;4330644;28;10000258;-77
2021/04/23 11:22:19;;;;;;;11.35;5.55;;;17.60;52.90;;;;;;5044757;28;20294;-77
2021/04/23 11:25:23;;;;;;;8.48;5.70;;;17.20;49.50;;;;;;5024865;28;20113;-77
2021/04/23 11:28:07;;;;;;;12.15;6.43;;;16.90;49.30;;;;;;4964530;28;20422;-77
2021/04/23 11:31:06;;;;;;;9.52;5.32;;;16.80;47.60;;;;;;4953771;28;20043;-77
2021/04/23 11:33:51;;;;;;;12.40;4.38;;;16.90;48.60;;;;;;5026213;28;20466;-77
2021/04/23 11:36:31;;;;;;;13.35;4.90;;;17.20;52.00;;;;;;5011178;28;20047;-77
2021/04/23 11:39:03;;;;;;;8.18;4.90;;;18.80;48.60;;;;;;5009914;28;20090;-77
2021/04/23 11:41:28;;;;;;;10.70;4.93;;;18.10;49.00;;;;;;5024254;28;20028;-77
2021/04/23 11:43:54;;;;;;;12.30;6.35;;;17.80;49.20;;;;;;5005464;28;20028;-78
2021/04/23 11:46:20;;;;;;;10.38;4.78;;;17.60;46.90;;;;;;5010075;28;20029;-78
2021/04/23 11:48:49;;;;;;;10.25;5.35;;;17.40;48.10;;;;;;5036965;28;20028;-77
2021/04/23 11:51:14;;;;;;;10.40;4.82;;;17.30;46.90;;;;;;5013497;28;20032;-78
2021/04/23 11:53:46;;;;;;;6.50;4.63;;;17.40;49.60;;;;;;5026624;28;20525;-77
2021/04/23 11:56:12;;;;;;;14.70;6.28;;;17.50;50.70;;;;;;5030345;28;20720;-77
2021/04/23 11:58:38;;;;;;;6.25;4.43;;;17.60;48.30;;;;;;5015589;28;20040;-77
2021/04/23 12:01:03;;;;;;;5.93;3.65;;;17.60;48.70;;;;;;5022052;28;20047;-78
2021/04/23 12:03:29;;;;;;;9.50;4.60;;;17.70;49.90;;;;;;5026296;28;20028;-78
2021/04/23 12:05:58;;;;;;;11.98;5.00;;;18.40;50.40;;;;;;5038017;28;20069;-78
2021/04/23 12:08:31;;;;;;;7.35;3.70;;;18.10;47.50;;;;;;5026690;28;20032;-78
2021/04/23 12:10:58;;;;;;;12.88;5.13;;;18.90;50.60;;;;;;5029067;28;20380;-77
2021/04/23 12:13:28;;;;;;;10.50;5.35;;;18.70;45.40;;;;;;5012498;28;20021;-77
2021/04/23 12:15:58;;;;;;;8.85;4.82;;;18.30;46.10;;;;;;5008535;28;20852;-78
2021/04/23 12:18:24;;;;;;;15.98;5.45;;;18.20;48.30;;;;;;5040860;28;20029;-77
2021/04/23 12:20:51;;;;;;;11.82;5.03;;;18.20;47.70;;;;;;5009621;28;20479;-77
2021/04/23 12:23:22;;;;;;;8.70;3.10;;;18.30;47.00;;;;;;5020813;28;20515;-77
2021/04/23 12:25:52;;;;;;;9.60;3.20;;;19.00;50.40;;;;;;5028107;28;20387;-78
2021/04/23 12:28:23;;;;;;;8.52;4.78;;;20.20;46.30;;;;;;5013141;28;20029;-78
2021/04/23 12:31:10;;;;;;;8.63;3.67;;;19.30;43.90;;;;;;5042690;28;20029;-78
2021/04/23 12:33:39;;;;;;;8.18;4.68;;;19.20;45.90;;;;;;5029133;28;20077;-77
2021/04/23 12:36:15;;;;;;;11.43;5.40;;;18.80;43.00;;;;;;5046634;28;20090;-78
2021/04/23 12:38:42;;;;;;;7.60;4.18;;;18.60;42.50;;;;;;5044269;28;20036;-77
2021/04/23 12:41:22;;;;;;;5.95;3.28;;;18.60;43.10;;;;;;5012486;28;20564;-77
2021/04/23 12:43:48;;;;;;;5.22;2.92;;;18.70;45.70;;;;;;5011946;28;20442;-78
2021/04/23 12:46:28;;;;;;;7.47;4.43;;;19.60;46.00;;;;;;5024376;28;20135;-77
2021/04/23 12:49:01;;;;;;;10.88;4.18;;;19.50;44.00;;;;;;5029541;28;20059;-78
2021/04/23 12:51:26;;;;;;;9.93;4.25;;;19.10;44.70;;;;;;5059876;28;20090;-78
2021/04/23 12:53:52;;;;;;;9.35;4.38;;;19.50;44.60;;;;;;5025012;28;20049;-78